Time;durP1;ratioP1;P1;durP2;ratioP2;P2;SDS_P1;SDS_P2;PMS_P1;PMS_P2;Temp;Humidity;BMP_temperature;BMP_pressure;BME280_temperature;BME280_humidity;BME280_pressure;Samples;Min_cycle;Max_cycle;Signal;HPM_P1;HPM_P2
2023/12/04 00:04:27;;;;;;;15.98;8.02;;;4.90;97.50;;;;;;10486347;28;20082;-73
2023/12/04 00:09:28;;;;;;;16.23;7.97;;;4.90;97.50;;;;;;10476275;28;20032;-73
2023/12/04 00:14:28;;;;;;;15.07;8.23;;;4.90;97.60;;;;;;10476665;28;20476;-73
2023/12/04 00:19:29;;;;;;;14.95;8.00;;;4.90;97.60;;;;;;10483308;28;20029;-72
2023/12/04 00:24:29;;;;;;;14.82;7.88;;;4.90;97.60;;;;;;10482335;28;20271;-72
2023/12/04 00:29:30;;;;;;;16.08;8.50;;;4.90;97.60;;;;;;10471859;28;20032;-73
2023/12/04 00:34:30;;;;;;;15.75;8.13;;;4.90;97.60;;;;;;10499114;28;20020;-73
2023/12/04 00:39:31;;;;;;;15.45;8.18;;;4.90;97.60;;;;;;10491556;28;20115;-73
2023/12/04 00:44:32;;;;;;;16.50;8.05;;;4.90;97.60;;;;;;10493275;28;20070;-73
2023/12/04 00:49:32;;;;;;;15.90;8.10;;;4.90;97.60;;;;;;10500656;28;20039;-72
2023/12/04 00:54:33;;;;;;;15.10;8.23;;;4.90;97.60;;;;;;10499108;28;20028;-73
2023/12/04 00:59:33;;;;;;;15.45;7.65;;;4.90;97.50;;;;;;10478663;28;20074;-73
2023/12/04 01:04:34;;;;;;;16.92;8.65;;;4.90;97.50;;;;;;10464540;28;20055;-72
2023/12/04 01:09:35;;;;;;;17.50;8.55;;;4.90;97.50;;;;;;10474930;28;20025;-72
2023/12/04 01:14:38;;;;;;;16.48;8.20;;;4.90;97.50;;;;;;10473057;28;20484;-72
2023/12/04 01:19:38;;;;;;;17.13;8.45;;;4.90;97.50;;;;;;10476462;28;20435;-74
2023/12/04 01:24:39;;;;;;;15.80;8.23;;;4.90;97.50;;;;;;10471048;28;20086;-73
2023/12/04 01:29:39;;;;;;;14.80;8.27;;;4.90;97.50;;;;;;10475137;28;20029;-73
2023/12/04 01:34:40;;;;;;;19.67;9.27;;;4.90;97.50;;;;;;10472042;28;20032;-72
2023/12/04 01:39:41;;;;;;;16.55;8.63;;;4.90;97.50;;;;;;10459620;28;20024;-72
2023/12/04 01:44:41;;;;;;;16.90;8.98;;;4.90;97.50;;;;;;10477325;28;20017;-73
2023/12/04 01:49:42;;;;;;;15.20;7.78;;;4.90;97.50;;;;;;10479995;28;20056;-73
2023/12/04 01:54:43;;;;;;;15.27;8.15;;;4.90;97.50;;;;;;10460510;28;20033;-72
2023/12/04 01:59:45;;;;;;;15.88;8.48;;;4.90;97.50;;;;;;10484487;28;20523;-73
2023/12/04 02:04:46;;;;;;;16.75;7.95;;;4.90;97.50;;;;;;10480349;28;20040;-72
2023/12/04 02:09:47;;;;;;;18.25;8.60;;;4.90;97.50;;;;;;10478201;28;20033;-72
2023/12/04 02:14:47;;;;;;;16.23;8.13;;;4.90;97.40;;;;;;10479297;28;20329;-72
2023/12/04 02:19:48;;;;;;;15.68;7.57;;;4.90;97.40;;;;;;10484864;28;20554;-72
2023/12/04 02:24:49;;;;;;;17.88;8.85;;;4.90;97.40;;;;;;10470912;28;20095;-72
2023/12/04 02:29:57;;;;;;;16.05;7.85;;;4.90;97.40;;;;;;10464577;28;20021;-72
2023/12/04 02:35:02;;;;;;;16.13;7.53;;;4.90;97.40;;;;;;10470596;28;20017;-72
2023/12/04 02:40:03;;;;;;;14.88;7.82;;;4.90;97.40;;;;;;10487280;28;20217;-74
2023/12/04 02:45:04;;;;;;;16.92;8.55;;;4.90;97.40;;;;;;10477146;28;20028;-72
2023/12/04 02:50:05;;;;;;;16.45;7.32;;;4.90;97.40;;;;;;10476136;28;20081;-72
2023/12/04 02:55:07;;;;;;;15.57;8.15;;;4.90;97.40;;;;;;10474342;28;20116;-72
2023/12/04 03:00:08;;;;;;;14.98;7.47;;;4.90;97.40;;;;;;10476770;28;20065;-73
2023/12/04 03:05:09;;;;;;;17.95;8.50;;;4.90;97.40;;;;;;10474429;28;20554;-72
2023/12/04 03:10:09;;;;;;;15.05;7.47;;;4.90;97.40;;;;;;10461146;28;20021;-72
2023/12/04 03:15:11;;;;;;;16.52;7.80;;;4.90;97.40;;;;;;10473378;28;20033;-74
2023/12/04 03:20:12;;;;;;;18.17;7.88;;;4.90;97.40;;;;;;10482035;28;20056;-72
2023/12/04 03:25:12;;;;;;;19.23;9.32;;;4.90;97.40;;;;;;10476475;28;20596;-73
2023/12/04 03:30:13;;;;;;;16.73;7.60;;;4.90;97.40;;;;;;10476051;28;20028;-72
2023/12/04 03:35:14;;;;;;;14.70;7.35;;;4.90;97.40;;;;;;10477024;28;20028;-73
2023/12/04 03:40:14;;;;;;;18.00;8.32;;;4.90;97.40;;;;;;10474511;28;20028;-72
2023/12/04 03:45:15;;;;;;;16.33;8.00;;;4.90;97.40;;;;;;10471659;28;20041;-72
2023/12/04 03:50:15;;;;;;;15.57;7.68;;;4.90;97.40;;;;;;10483398;28;20431;-73
2023/12/04 03:55:18;;;;;;;18.27;7.50;;;4.90;97.40;;;;;;10483717;28;20595;-70
2023/12/04 04:00:19;;;;;;;15.27;7.72;;;4.90;97.40;;;;;;10469011;28;20274;-69
2023/12/04 04:05:20;;;;;;;14.70;7.40;;;4.90;97.40;;;;;;10471129;28;20037;-70
2023/12/04 04:10:21;;;;;;;17.27;7.53;;;4.90;97.40;;;;;;10475576;28;20107;-70
2023/12/04 04:15:21;;;;;;;14.48;7.55;;;4.90;97.40;;;;;;10477282;28;20125;-70
2023/12/04 04:20:22;;;;;;;16.70;7.20;;;4.90;97.40;;;;;;10471464;28;20012;-68
2023/12/04 04:25:23;;;;;;;15.35;7.05;;;4.90;97.40;;;;;;10478058;28;20017;-69
2023/12/04 04:30:24;;;;;;;17.60;8.27;;;4.90;97.40;;;;;;10467677;28;20032;-68
2023/12/04 04:35:25;;;;;;;15.85;7.10;;;4.90;97.40;;;;;;10479089;28;20272;-70
2023/12/04 04:40:25;;;;;;;15.38;7.72;;;4.90;97.40;;;;;;10472279;28;20077;-71
2023/12/04 04:45:26;;;;;;;16.38;7.70;;;4.90;97.40;;;;;;10481740;28;20024;-70
2023/12/04 04:50:26;;;;;;;14.40;7.10;;;4.90;97.40;;;;;;10469010;28;20044;-69
2023/12/04 04:55:27;;;;;;;15.30;7.90;;;4.90;97.40;;;;;;10475708;28;20028;-70
2023/12/04 05:00:27;;;;;;;12.60;6.75;;;4.90;97.30;;;;;;10477621;28;20020;-69
2023/12/04 05:05:28;;;;;;;13.57;6.65;;;4.90;97.30;;;;;;10478030;28;20025;-71
2023/12/04 05:10:29;;;;;;;13.82;6.82;;;4.90;97.30;;;;;;10482866;28;20473;-70
2023/12/04 05:15:29;;;;;;;12.57;6.60;;;4.80;97.30;;;;;;10486930;28;20024;-70
2023/12/04 05:20:30;;;;;;;14.50;6.82;;;4.80;97.30;;;;;;10477662;28;20337;-70
2023/12/04 05:25:30;;;;;;;11.57;6.07;;;4.80;97.30;;;;;;10477547;28;20136;-71
2023/12/04 05:30:31;;;;;;;13.18;6.68;;;4.80;97.30;;;;;;10469077;28;20078;-69
2023/12/04 05:35:34;;;;;;;13.77;6.10;;;4.80;97.30;;;;;;10482781;28;20028;-70
2023/12/04 05:40:34;;;;;;;14.68;7.03;;;4.80;97.30;;;;;;10475317;28;20116;-70
2023/12/04 05:45:35;;;;;;;13.98;6.43;;;4.80;97.30;;;;;;10486628;28;20021;-70
2023/12/04 05:50:36;;;;;;;13.27;6.32;;;4.80;97.30;;;;;;10479917;28;20025;-70
2023/12/04 05:55:36;;;;;;;11.88;5.35;;;4.80;97.30;;;;;;10485512;28;20035;-69
2023/12/04 06:00:37;;;;;;;13.43;6.57;;;4.80;97.30;;;;;;10473983;28;20013;-70
2023/12/04 06:05:38;;;;;;;14.13;6.43;;;4.80;97.30;;;;;;10485077;28;20426;-70
2023/12/04 06:10:38;;;;;;;13.68;6.25;;;4.80;97.20;;;;;;10483459;28;20021;-70
2023/12/04 06:15:39;;;;;;;13.60;6.32;;;4.80;97.30;;;;;;10478458;28;20028;-69
2023/12/04 06:20:39;;;;;;;12.98;6.57;;;4.80;97.20;;;;;;10479489;28;20023;-70
2023/12/04 06:25:40;;;;;;;11.88;5.95;;;4.80;97.20;;;;;;10477075;28;20035;-68
2023/12/04 06:30:41;;;;;;;13.45;5.93;;;4.80;97.20;;;;;;10487358;28;20063;-70
2023/12/04 06:35:42;;;;;;;12.27;5.50;;;4.80;97.20;;;;;;10480480;28;20033;-69
2023/12/04 06:40:43;;;;;;;14.43;6.15;;;4.80;97.20;;;;;;10480875;28;20038;-70
2023/12/04 06:45:45;;;;;;;13.40;6.68;;;4.80;97.10;;;;;;10491935;28;20562;-70
2023/12/04 06:50:46;;;;;;;14.60;6.20;;;4.80;97.10;;;;;;10484289;28;20294;-70
2023/12/04 06:55:46;;;;;;;14.13;6.72;;;4.80;97.10;;;;;;10487318;28;20020;-70
2023/12/04 07:00:48;;;;;;;13.23;5.60;;;4.80;97.10;;;;;;10478447;28;20031;-71
2023/12/04 07:05:49;;;;;;;13.23;6.25;;;4.80;97.10;;;;;;10457851;28;20028;-70
2023/12/04 07:10:49;;;;;;;12.00;5.80;;;4.80;97.10;;;;;;10476678;28;20075;-70
2023/12/04 07:15:51;;;;;;;14.20;5.40;;;4.70;97.00;;;;;;10482585;28;20108;-70
2023/12/04 07:20:51;;;;;;;9.45;5.35;;;4.70;97.00;;;;;;10485404;28;20099;-70
2023/12/04 07:25:52;;;;;;;12.93;6.03;;;4.70;97.00;;;;;;10490387;28;20024;-70
2023/12/04 07:30:55;;;;;;;12.65;6.13;;;4.70;97.00;;;;;;10479080;28;20024;-71
2023/12/04 07:35:56;;;;;;;12.30;5.45;;;4.70;96.90;;;;;;10486264;28;20060;-71
2023/12/04 07:40:57;;;;;;;10.90;4.90;;;4.70;96.90;;;;;;10483012;28;20579;-71
2023/12/04 07:45:57;;;;;;;9.63;4.55;;;4.80;96.90;;;;;;10477399;28;20040;-70
2023/12/04 07:50:58;;;;;;;9.98;5.10;;;4.70;96.90;;;;;;10478887;28;20025;-70
2023/12/04 07:56:03;;;;;;;10.27;5.10;;;4.80;96.90;;;;;;10475167;28;20488;-71
2023/12/04 08:01:04;;;;;;;11.52;4.93;;;4.80;96.80;;;;;;10481517;28;20265;-72
2023/12/04 08:06:05;;;;;;;9.70;4.68;;;4.80;96.80;;;;;;10474505;28;20046;-71
2023/12/04 08:11:06;;;;;;;14.05;5.50;;;4.80;96.80;;;;;;10470457;28;20020;-70
2023/12/04 08:16:15;;;;;;;10.70;5.10;;;4.80;96.80;;;;;;10485216;28;20020;-71
2023/12/04 08:21:16;;;;;;;12.25;4.93;;;4.90;96.70;;;;;;10480681;28;20082;-71
2023/12/04 08:26:24;;;;;;;10.45;5.40;;;4.80;96.70;;;;;;10479533;28;20775;-70
2023/12/04 08:31:24;;;;;;;10.68;4.97;;;4.90;96.70;;;;;;10485296;28;20035;-71
2023/12/04 08:36:25;;;;;;;9.88;4.85;;;4.90;96.70;;;;;;10481147;28;20314;-70
2023/12/04 08:41:28;;;;;;;8.65;4.22;;;4.80;96.60;;;;;;10478610;28;21163;-76
2023/12/04 08:46:28;;;;;;;10.20;4.85;;;5.10;96.70;;;;;;10479459;28;20031;-72
2023/12/04 08:51:29;;;;;;;10.48;4.72;;;4.80;96.60;;;;;;10484732;28;20032;-72
2023/12/04 08:56:29;;;;;;;7.78;4.03;;;4.80;96.60;;;;;;10475864;28;20021;-72
2023/12/04 09:01:30;;;;;;;8.10;4.22;;;4.80;96.50;;;;;;10474068;28;20116;-72
2023/12/04 09:06:31;;;;;;;10.00;4.70;;;4.80;96.50;;;;;;10479472;28;20036;-72
2023/12/04 09:11:31;;;;;;;7.78;4.18;;;4.80;96.40;;;;;;10477635;28;20028;-72
2023/12/04 09:16:32;;;;;;;10.27;4.88;;;4.80;96.40;;;;;;10483264;28;20028;-72
2023/12/04 09:21:33;;;;;;;9.10;4.47;;;4.80;96.30;;;;;;10479330;28;20385;-72
2023/12/04 09:26:34;;;;;;;8.25;4.25;;;4.80;96.20;;;;;;10482231;28;20035;-72
2023/12/04 09:31:35;;;;;;;7.57;3.95;;;4.90;96.20;;;;;;10476987;28;20035;-72
2023/12/04 09:36:35;;;;;;;10.18;4.00;;;4.90;96.20;;;;;;10484222;28;20017;-77
2023/12/04 09:41:38;;;;;;;7.18;4.07;;;4.90;96.10;;;;;;10476586;28;20035;-73
2023/12/04 09:46:39;;;;;;;8.05;4.03;;;5.00;96.10;;;;;;10472834;28;20241;-72
2023/12/04 09:51:40;;;;;;;8.30;4.50;;;5.00;96.10;;;;;;10485708;28;20038;-72
2023/12/04 09:56:40;;;;;;;7.05;3.88;;;5.00;96.00;;;;;;10475668;28;20426;-75
2023/12/04 10:01:42;;;;;;;7.53;4.20;;;5.00;96.00;;;;;;10477142;28;20035;-75
2023/12/04 10:06:45;;;;;;;8.85;4.05;;;5.00;96.10;;;;;;10478475;28;20029;-73
2023/12/04 10:11:46;;;;;;;7.97;3.97;;;5.10;96.10;;;;;;10482776;28;20025;-71
2023/12/04 10:16:48;;;;;;;8.63;3.63;;;5.20;96.20;;;;;;10486755;28;20024;-70
2023/12/04 10:21:50;;;;;;;6.90;3.55;;;5.30;96.10;;;;;;10481555;28;20377;-72
2023/12/04 10:26:51;;;;;;;11.20;4.72;;;5.30;96.00;;;;;;10479564;28;20017;-71
2023/12/04 10:31:53;;;;;;;9.07;3.92;;;5.30;96.10;;;;;;10487651;28;20427;-74
2023/12/04 10:36:55;;;;;;;8.60;3.95;;;5.30;96.70;;;;;;10485756;28;20040;-71
2023/12/04 10:42:03;;;;;;;12.85;4.07;;;5.40;96.10;;;;;;10477909;28;20396;-70
2023/12/04 10:47:04;;;;;;;6.88;3.88;;;5.50;96.10;;;;;;10489432;28;20705;-69
2023/12/04 10:52:05;;;;;;;9.18;4.63;;;6.00;96.20;;;;;;10485443;28;20028;-70
2023/12/04 10:57:07;;;;;;;10.77;4.32;;;5.40;96.10;;;;;;10490293;28;20024;-71
2023/12/04 11:02:16;;;;;;;11.30;4.32;;;5.40;96.10;;;;;;10492065;28;20035;-70
2023/12/04 11:07:18;;;;;;;9.77;4.53;;;5.40;96.10;;;;;;10473189;28;20440;-71
2023/12/04 11:12:25;;;;;;;7.20;3.97;;;5.40;96.10;;;;;;10489228;28;20059;-71
2023/12/04 11:17:28;;;;;;;10.90;4.30;;;5.40;96.10;;;;;;10485998;28;20476;-70
2023/12/04 11:22:28;;;;;;;6.53;3.42;;;5.40;96.20;;;;;;10485900;28;20033;-71
2023/12/04 11:27:29;;;;;;;8.02;3.60;;;5.40;96.10;;;;;;10482155;28;20686;-70
2023/12/04 11:32:29;;;;;;;8.18;4.05;;;5.50;96.30;;;;;;10476423;28;20032;-70
2023/12/04 11:37:31;;;;;;;7.53;3.65;;;5.50;96.20;;;;;;10489369;28;20400;-70
2023/12/04 11:42:32;;;;;;;8.43;3.83;;;5.50;96.20;;;;;;10487542;28;20070;-71
2023/12/04 11:47:59;;;;;;;7.80;3.92;;;5.50;96.20;;;;;;10481121;28;20396;-70
2023/12/04 11:53:03;;;;;;;7.65;4.60;;;5.50;96.00;;;;;;10481115;28;20032;-70
2023/12/04 11:58:11;;;;;;;8.00;4.45;;;5.40;96.00;;;;;;10488755;28;20032;-72
2023/12/04 12:03:14;;;;;;;7.65;3.70;;;5.50;96.00;;;;;;10486377;28;20469;-71
2023/12/04 12:08:15;;;;;;;7.47;3.90;;;5.40;96.00;;;;;;10480152;28;20032;-69
2023/12/04 12:13:16;;;;;;;8.68;4.28;;;5.50;96.00;;;;;;10483774;28;20078;-69
2023/12/04 12:18:17;;;;;;;6.57;3.78;;;5.50;96.00;;;;;;10484597;28;20514;-69
2023/12/04 12:23:18;;;;;;;8.40;4.15;;;5.50;96.00;;;;;;10484260;28;20016;-71
2023/12/04 12:28:19;;;;;;;9.10;4.32;;;5.50;95.90;;;;;;10487912;28;20020;-72
2023/12/04 12:33:20;;;;;;;6.68;3.67;;;6.00;96.00;;;;;;10484830;28;20020;-72
2023/12/04 12:38:22;;;;;;;8.27;4.40;;;5.40;95.90;;;;;;10478836;28;20104;-71
2023/12/04 12:43:23;;;;;;;7.97;3.65;;;5.40;95.90;;;;;;10485450;28;20033;-70
2023/12/04 12:48:26;;;;;;;7.18;3.60;;;5.40;95.90;;;;;;10490050;28;20046;-70
2023/12/04 12:53:27;;;;;;;6.50;3.60;;;5.40;95.90;;;;;;10486972;28;20418;-69
2023/12/04 12:58:28;;;;;;;8.27;4.15;;;5.40;95.90;;;;;;10486983;28;20024;-69
2023/12/04 13:03:31;;;;;;;7.30;3.97;;;5.40;95.90;;;;;;10478301;28;20312;-68
2023/12/04 13:08:32;;;;;;;7.93;4.32;;;5.40;95.90;;;;;;10480078;28;20402;-70
2023/12/04 13:13:32;;;;;;;7.95;4.15;;;5.40;95.90;;;;;;10479561;28;20028;-69
2023/12/04 13:18:35;;;;;;;7.40;3.72;;;5.40;95.80;;;;;;10488023;28;20020;-70
2023/12/04 13:23:37;;;;;;;7.57;4.15;;;5.40;95.80;;;;;;10477856;28;20059;-69
2023/12/04 13:28:37;;;;;;;8.88;3.70;;;5.40;95.80;;;;;;10490937;28;20034;-69
2023/12/04 13:33:38;;;;;;;7.18;3.92;;;5.50;95.80;;;;;;10482617;28;20031;-70
2023/12/04 13:38:38;;;;;;;7.10;3.58;;;5.40;95.80;;;;;;10482033;28;20107;-69
2023/12/04 13:43:51;;;;;;;8.02;3.42;;;5.50;95.80;;;;;;10473126;28;20016;-70
2023/12/04 13:48:52;;;;;;;9.55;4.07;;;5.50;95.90;;;;;;10477850;28;20255;-71
2023/12/04 13:54:02;;;;;;;7.60;4.10;;;5.50;95.70;;;;;;10485565;28;20033;-71
2023/12/04 13:59:05;;;;;;;7.90;4.20;;;5.30;95.40;;;;;;10488232;28;20395;-71
2023/12/04 14:04:05;;;;;;;9.20;4.68;;;5.10;95.40;;;;;;10479503;28;20020;-72
2023/12/04 14:09:09;;;;;;;8.23;3.78;;;5.10;95.60;;;;;;10477820;28;20028;-71
2023/12/04 14:14:10;;;;;;;6.78;3.75;;;5.10;95.70;;;;;;10486843;28;20082;-71
2023/12/04 14:19:12;;;;;;;8.07;3.65;;;5.10;95.70;;;;;;10488201;28;20433;-71
2023/12/04 14:24:13;;;;;;;5.72;3.55;;;5.20;95.80;;;;;;10494419;28;20073;-71
2023/12/04 14:29:13;;;;;;;11.52;4.05;;;5.20;95.80;;;;;;10477001;28;20465;-70
2023/12/04 14:34:14;;;;;;;7.68;3.47;;;5.30;95.90;;;;;;10487967;28;20039;-71
2023/12/04 14:39:17;;;;;;;9.43;3.85;;;5.40;95.80;;;;;;10479463;28;20101;-70
2023/12/04 14:44:17;;;;;;;9.13;3.88;;;5.40;95.80;;;;;;10499362;28;20024;-70
2023/12/04 14:49:18;;;;;;;6.93;3.70;;;5.50;96.10;;;;;;10483166;28;20040;-70
2023/12/04 14:54:30;;;;;;;6.22;3.92;;;5.50;96.10;;;;;;10491925;28;20475;-70
2023/12/04 15:25:11;;;;;;;9.48;4.20;;;5.50;96.20;;;;;;10462513;28;20605;-71
2023/12/04 15:30:14;;;;;;;9.20;4.00;;;5.50;96.20;;;;;;10463121;28;20416;-74
2023/12/04 15:35:14;;;;;;;7.43;3.67;;;5.50;96.30;;;;;;10474114;28;20048;-71
2023/12/04 15:40:15;;;;;;;8.10;3.90;;;5.50;96.30;;;;;;10498730;28;20404;-74
2023/12/04 15:45:16;;;;;;;10.70;4.40;;;5.80;96.30;;;;;;10473903;28;20387;-71
2023/12/04 15:50:17;;;;;;;7.00;3.85;;;5.60;96.40;;;;;;10489795;28;20585;-70
2023/12/04 15:55:20;;;;;;;8.40;4.38;;;5.70;96.80;;;;;;10487756;28;20020;-77
2023/12/04 16:00:21;;;;;;;7.97;3.92;;;5.80;96.50;;;;;;10477017;28;20124;-73
2023/12/04 16:05:23;;;;;;;8.00;4.07;;;5.70;96.40;;;;;;10489043;28;20379;-76
2023/12/04 16:10:24;;;;;;;8.65;3.55;;;5.70;96.40;;;;;;10478511;28;20083;-74
2023/12/04 16:15:24;;;;;;;8.38;3.95;;;5.60;96.40;;;;;;10476244;28;20552;-73
2023/12/04 16:20:25;;;;;;;7.05;4.03;;;5.60;96.40;;;;;;10479989;28;20028;-74
2023/12/04 16:25:26;;;;;;;6.85;3.80;;;5.60;96.40;;;;;;10475942;28;20107;-75
2023/12/04 16:30:27;;;;;;;9.43;5.20;;;5.60;96.50;;;;;;10477663;28;20017;-75
2023/12/04 16:35:28;;;;;;;9.40;4.18;;;5.60;96.40;;;;;;10474087;28;20412;-74
2023/12/04 16:40:29;;;;;;;10.10;4.72;;;5.60;96.70;;;;;;10475818;28;20013;-75
2023/12/04 16:45:29;;;;;;;9.52;4.68;;;5.60;96.50;;;;;;10471690;28;20026;-75
2023/12/04 16:50:32;;;;;;;14.98;5.78;;;5.60;96.50;;;;;;10468306;28;20090;-72
2023/12/04 16:55:33;;;;;;;13.18;5.10;;;5.50;96.70;;;;;;10473364;28;20111;-77
2023/12/04 17:00:33;;;;;;;6.78;4.20;;;5.50;96.60;;;;;;10467452;28;20027;-73
2023/12/04 17:05:34;;;;;;;10.15;4.78;;;5.50;96.60;;;;;;10467470;28;20090;-74
2023/12/04 17:10:35;;;;;;;11.55;5.43;;;5.50;96.60;;;;;;10479460;28;20036;-75
2023/12/04 17:15:35;;;;;;;10.23;4.95;;;5.50;96.60;;;;;;10476777;28;20100;-73
2023/12/04 17:20:37;;;;;;;10.40;4.85;;;5.50;96.60;;;;;;10474082;28;20021;-75
2023/12/04 17:25:37;;;;;;;8.30;4.00;;;5.50;96.60;;;;;;10471752;28;20423;-74
2023/12/04 17:30:38;;;;;;;8.45;4.20;;;5.50;96.60;;;;;;10478857;28;20028;-74
2023/12/04 17:35:40;;;;;;;10.10;4.80;;;5.50;96.60;;;;;;10475670;28;20143;-71
2023/12/04 17:40:40;;;;;;;7.95;4.68;;;5.50;96.60;;;;;;10486002;28;20051;-72
2023/12/04 17:45:41;;;;;;;8.02;4.45;;;5.40;96.60;;;;;;10485901;28;20074;-71
2023/12/04 17:50:42;;;;;;;11.15;5.28;;;5.40;96.60;;;;;;10479357;28;20051;-72
2023/12/04 17:55:43;;;;;;;10.68;4.47;;;5.50;96.80;;;;;;10470341;28;20484;-73
2023/12/04 18:00:44;;;;;;;8.02;4.57;;;5.40;96.70;;;;;;10475134;28;20033;-73
2023/12/04 18:05:44;;;;;;;11.93;4.75;;;5.40;96.70;;;;;;10472375;28;20029;-73
2023/12/04 18:10:45;;;;;;;8.43;4.55;;;5.40;96.70;;;;;;10476355;28;20025;-72
2023/12/04 18:20:51;;;;;;;9.18;3.78;;;5.40;96.70;;;;;;10392302;28;20103;-70
2023/12/04 18:25:52;;;;;;;8.90;4.47;;;5.50;97.60;;;;;;10383871;28;20033;-72
2023/12/04 18:30:53;;;;;;;10.00;4.57;;;6.00;97.60;;;;;;10389602;28;20024;-72
2023/12/04 18:35:54;;;;;;;10.05;4.35;;;6.00;97.30;;;;;;10377278;28;20068;-73
2023/12/04 18:40:55;;;;;;;7.88;4.28;;;5.90;97.20;;;;;;10388423;28;20033;-73
2023/12/04 18:45:56;;;;;;;8.15;4.45;;;5.80;97.20;;;;;;10368751;28;20034;-72
2023/12/04 18:50:56;;;;;;;10.93;5.18;;;5.80;97.20;;;;;;10376739;28;20025;-76
2023/12/04 18:55:57;;;;;;;9.32;4.75;;;5.70;97.20;;;;;;10390550;28;20548;-74
2023/12/04 19:00:58;;;;;;;12.07;5.50;;;5.70;97.20;;;;;;10362607;28;20033;-72
2023/12/04 19:05:58;;;;;;;8.35;4.57;;;5.60;97.20;;;;;;10383374;28;20040;-72
2023/12/04 19:10:59;;;;;;;6.95;4.13;;;5.60;97.30;;;;;;10389430;28;20079;-72
2023/12/04 19:15:59;;;;;;;8.10;4.53;;;5.60;97.30;;;;;;10382296;28;20075;-74
2023/12/04 19:21:00;;;;;;;11.15;5.47;;;5.50;97.20;;;;;;10425972;28;20095;-73
2023/12/04 19:26:00;;;;;;;10.18;4.90;;;5.60;97.20;;;;;;10418112;28;20497;-72
2023/12/04 19:31:03;;;;;;;12.23;5.60;;;5.50;97.20;;;;;;10423017;28;20041;-73
2023/12/04 19:36:05;;;;;;;9.70;5.20;;;5.50;97.20;;;;;;10427201;28;20083;-72
2023/12/04 19:41:07;;;;;;;9.73;4.82;;;5.50;97.20;;;;;;10430394;28;20068;-72
2023/12/04 19:46:07;;;;;;;10.73;5.70;;;5.50;97.30;;;;;;10427745;28;20017;-73
2023/12/04 19:51:08;;;;;;;6.82;4.47;;;5.50;97.20;;;;;;10427399;28;20481;-73
2023/12/04 19:56:09;;;;;;;10.73;5.28;;;5.50;97.20;;;;;;10425454;28;20048;-72
2023/12/04 20:01:12;;;;;;;9.60;5.13;;;5.50;97.30;;;;;;10419283;28;20021;-72
2023/12/04 20:06:13;;;;;;;9.55;4.93;;;5.50;97.30;;;;;;10415021;28;20025;-74
2023/12/04 20:11:14;;;;;;;9.07;4.88;;;5.50;97.30;;;;;;10403752;28;20037;-73
2023/12/04 20:16:14;;;;;;;8.85;4.70;;;6.10;97.40;;;;;;10425580;28;20090;-76
2023/12/04 20:21:15;;;;;;;9.07;5.07;;;5.40;97.30;;;;;;10419661;28;20491;-76
2023/12/04 20:26:16;;;;;;;10.18;5.03;;;5.50;97.30;;;;;;10403331;28;20095;-77
2023/12/04 20:31:16;;;;;;;11.38;5.70;;;5.40;97.30;;;;;;10413380;28;20025;-74
2023/12/04 20:36:17;;;;;;;8.80;5.47;;;5.40;97.30;;;;;;10408147;28;21604;-73
2023/12/04 20:41:20;;;;;;;12.73;5.60;;;5.40;97.30;;;;;;10425566;28;20071;-72
2023/12/04 20:46:21;;;;;;;10.50;4.95;;;5.40;97.30;;;;;;10423778;28;20120;-73
2023/12/04 20:51:21;;;;;;;9.07;5.47;;;5.40;97.30;;;;;;10417459;28;20033;-72
2023/12/04 20:56:22;;;;;;;8.93;5.00;;;5.40;97.30;;;;;;10420158;28;20051;-72
2023/12/04 21:01:22;;;;;;;9.40;4.88;;;5.40;97.30;;;;;;10423578;28;20100;-73
2023/12/04 21:06:23;;;;;;;8.82;5.50;;;5.40;97.30;;;;;;10402823;28;20408;-72
2023/12/04 21:11:25;;;;;;;8.90;5.40;;;5.40;97.30;;;;;;10433284;28;20025;-73
2023/12/04 21:16:25;;;;;;;8.23;5.05;;;5.40;97.30;;;;;;10428212;28;20370;-72
2023/12/04 21:21:26;;;;;;;11.07;6.32;;;5.40;97.30;;;;;;10406550;28;20038;-73
2023/12/04 21:26:27;;;;;;;10.45;5.95;;;5.40;97.30;;;;;;10418264;28;20053;-75
2023/12/04 21:31:27;;;;;;;9.30;5.10;;;5.40;97.30;;;;;;10419492;28;20276;-73
2023/12/04 21:36:28;;;;;;;10.85;5.88;;;5.40;97.60;;;;;;10416957;28;20071;-72
2023/12/04 21:41:29;;;;;;;10.77;5.55;;;5.40;97.30;;;;;;10425093;28;20036;-72
2023/12/04 21:46:30;;;;;;;12.02;5.85;;;5.40;97.30;;;;;;10414319;28;20029;-74
2023/12/04 21:51:31;;;;;;;11.50;5.55;;;5.40;97.30;;;;;;10423950;28;20486;-72
2023/12/04 21:56:31;;;;;;;10.57;5.53;;;5.40;97.30;;;;;;10420472;28;20112;-73
2023/12/04 22:01:32;;;;;;;8.82;5.22;;;5.40;97.30;;;;;;10421455;28;20038;-72
2023/12/04 22:06:33;;;;;;;10.25;5.78;;;5.40;97.30;;;;;;10401621;28;20075;-73
2023/12/04 22:11:33;;;;;;;12.30;6.38;;;5.30;97.30;;;;;;10422200;28;20501;-72
2023/12/04 22:16:34;;;;;;;9.18;5.70;;;5.30;97.30;;;;;;10425094;28;20036;-72
2023/12/04 22:21:34;;;;;;;11.93;5.97;;;5.30;97.30;;;;;;10434081;28;20292;-72
2023/12/04 22:26:35;;;;;;;10.98;5.65;;;5.30;97.30;;;;;;10435041;28;20479;-72
2023/12/04 22:31:36;;;;;;;10.20;5.90;;;5.30;97.30;;;;;;10434241;28;20033;-73
2023/12/04 22:36:37;;;;;;;11.02;6.07;;;5.30;97.30;;;;;;10427971;28;20021;-72
2023/12/04 22:41:38;;;;;;;10.23;6.07;;;5.30;97.30;;;;;;10434854;28;20220;-72
2023/12/04 22:46:39;;;;;;;10.98;6.15;;;5.30;97.30;;;;;;10433857;28;20488;-73
2023/12/04 22:51:40;;;;;;;10.68;5.45;;;5.30;97.40;;;;;;10429761;28;20152;-72
2023/12/04 22:56:40;;;;;;;12.45;6.22;;;5.30;97.30;;;;;;10434525;28;20631;-72
2023/12/04 23:01:41;;;;;;;10.40;5.90;;;5.30;97.40;;;;;;10428406;28;20642;-72
2023/12/04 23:06:42;;;;;;;9.10;5.32;;;5.30;97.30;;;;;;10428037;28;20067;-73
2023/12/04 23:11:42;;;;;;;11.30;5.95;;;5.30;97.40;;;;;;10428176;28;20025;-72
2023/12/04 23:16:44;;;;;;;10.27;5.32;;;5.30;97.40;;;;;;10430349;28;20536;-72
2023/12/04 23:21:44;;;;;;;9.75;5.35;;;5.30;97.40;;;;;;10419519;28;20033;-72
2023/12/04 23:26:47;;;;;;;10.82;5.95;;;5.30;97.40;;;;;;10415518;28;20052;-72
2023/12/04 23:31:48;;;;;;;8.88;5.63;;;5.30;97.40;;;;;;10420555;28;20014;-72
2023/12/04 23:36:48;;;;;;;9.93;5.30;;;5.30;97.40;;;;;;10436789;28;20111;-72
2023/12/04 23:41:49;;;;;;;11.15;5.47;;;5.30;97.40;;;;;;10433172;28;20013;-72
2023/12/04 23:46:49;;;;;;;10.38;5.88;;;5.30;97.40;;;;;;10422007;28;20496;-73
2023/12/04 23:51:50;;;;;;;9.57;5.60;;;5.30;97.40;;;;;;10420540;28;20024;-72
2023/12/04 23:56:51;;;;;;;9.85;5.65;;;5.30;97.40;;;;;;10423939;28;20025;-72
